Aérodrome :
LOGIN :

S'inscrire | Disclaimer

   EN    FR    IT 

 










Légende :    VFR   VFR Marginal   IFR   IFR Intensif   IFR Très Intensif
Visi : 
Plafond : 
>= 8 km
>= 3000ft
5 à 8 km
1000 à 3000 ft
1500m à 5 km
500 à 1000 ft
800 à 1500m
200 à 500 ft
< 800m
< 200 ft
Symboles :   Orages  Brouillard  Fortes neiges  Fortes précipitations  Vent > 20 kt
SIGMETs :   Divers  Orages  Givrage  Turbulence  Onde Orograph.  Cendres Volcan.






- Altitude de l'aérodrome : 119 ft
- Code IATA : WAT


EIWF - Waterford

DERNIER METAR :
  • 031730Z 25012KT 210V280 CAVOK 10/07 Q1017

METARs EXPIRÉS :
  • 031700Z 25013KT CAVOK 10/07 Q1017
  • 031630Z 25012KT 210V300 9999 FEW043 SCT060 10/07 Q1017
  • 031600Z 24013KT 220V280 9999 FEW042 SCT055 10/07 Q1017
  • 031530Z 25015KT 220V280 9999 FEW043 11/07 Q1017
  • 031500Z 25011KT 210V270 9999 FEW018 SCT042 11/06 Q1017

TAF TAF EIWF
Valide du 03 à 18h jusqu'au 04 à 03h UTC


031700Z 0318/0403 24013KT 9999 FEW018 SCT025
BECMG 0323/0401 21010KT
ATIS : +353 51 877 000



MET'MAP, la Météo Aéronautique d'un coup d'oeil ! - Copyright ORBIFLY Décembre 2007 - Disclaimer

ORBIFLY MET'MAP TEAM :

Programmation & Développement : Alexandra Zaïnal
Sur une idée originale de : Baudouin d'Aumeries
Assistance à la programmation : Marc-Olivier Méhu
Soutien technique & logistique : Manuel Goepfert

Contact : metmap@orbifly.com




SOURCES & CREDITS :

   NOAA